createdAt,value
2023-01-09T00:00:22.775Z,98196.81
2023-01-09T00:01:34.321Z,98186.34
2023-01-09T00:02:37.071Z,98199.44
2023-01-09T00:03:38.936Z,98178.09
2023-01-09T00:04:41.529Z,98179.56
2023-01-09T00:05:43.276Z,98182.16
2023-01-09T00:06:50.377Z,98177.91
2023-01-09T00:07:52.288Z,98189.09
2023-01-09T00:08:54.216Z,98183.72
2023-01-09T00:09:55.875Z,98180.28
2023-01-09T00:10:57.593Z,98183.00
2023-01-09T00:11:59.410Z,98177.56
2023-01-09T00:13:01.171Z,98178.53
2023-01-09T00:14:04.095Z,98169.16
2023-01-09T00:15:06.660Z,98166.72
2023-01-09T00:16:09.327Z,98164.84
2023-01-09T00:17:10.996Z,98180.66
2023-01-09T00:18:12.856Z,98172.19
2023-01-09T00:19:14.669Z,98168.09
2023-01-09T00:20:18.351Z,98167.16
2023-01-09T00:21:20.711Z,98168.25
2023-01-09T00:22:22.400Z,98145.34
2023-01-09T00:23:24.084Z,98170.72
2023-01-09T00:24:25.976Z,98161.22
2023-01-09T00:25:27.828Z,98176.72
2023-01-09T00:26:29.576Z,98160.66
2023-01-09T00:27:32.977Z,98170.81
2023-01-09T00:28:35.355Z,98156.41
2023-01-09T00:29:36.989Z,98148.88
2023-01-09T00:30:39.219Z,98146.50
2023-01-09T00:31:41.042Z,98151.72
2023-01-09T00:32:42.683Z,98158.63
2023-01-09T00:33:59.395Z,98146.78
2023-01-09T00:35:01.223Z,98148.94
2023-01-09T00:36:03.400Z,98145.47
2023-01-09T00:37:11.866Z,98161.94
2023-01-09T00:38:13.678Z,98141.38
2023-01-09T00:39:15.462Z,98155.31
2023-01-09T00:40:18.772Z,98148.31
2023-01-09T00:41:27.163Z,98149.44
2023-01-09T00:42:32.128Z,98151.41
2023-01-09T00:43:38.987Z,98153.06
2023-01-09T00:44:47.249Z,98152.72
2023-01-09T00:45:49.202Z,98159.88
2023-01-09T00:46:59.297Z,98156.41
2023-01-09T00:48:10.253Z,98159.97
2023-01-09T00:49:13.727Z,98167.09
2023-01-09T00:50:19.433Z,98160.59
2023-01-09T00:51:21.702Z,98158.09
2023-01-09T00:52:23.933Z,98158.94
2023-01-09T00:53:32.931Z,98166.19
2023-01-09T00:54:35.326Z,98168.03
2023-01-09T00:55:38.619Z,98159.56
2023-01-09T00:56:40.509Z,98162.38
2023-01-09T00:57:42.311Z,98152.69
2023-01-09T00:58:44.849Z,98143.94
2023-01-09T00:59:46.626Z,98150.00
2023-01-09T01:00:48.397Z,98140.69
2023-01-09T01:01:50.171Z,98138.25
2023-01-09T01:02:53.281Z,98139.97
2023-01-09T01:03:55.558Z,98145.19
2023-01-09T01:05:16.013Z,98142.94
2023-01-09T01:06:36.739Z,98147.56
2023-01-09T01:07:38.545Z,98159.94
2023-01-09T01:08:40.674Z,98153.16
2023-01-09T01:09:42.353Z,98148.13
2023-01-09T01:10:45.173Z,98149.25
2023-01-09T01:11:46.802Z,98153.81
2023-01-09T01:12:50.625Z,98151.97
2023-01-09T01:13:53.039Z,98157.25
2023-01-09T01:14:54.742Z,98161.56
2023-01-09T01:15:56.816Z,98160.03
2023-01-09T01:16:58.518Z,98159.22
2023-01-09T01:18:01.018Z,98154.09
2023-01-09T01:19:02.823Z,98160.25
2023-01-09T01:20:07.014Z,98160.31
2023-01-09T01:21:10.758Z,98149.91
2023-01-09T01:22:12.392Z,98139.31
2023-01-09T01:23:14.422Z,98157.75
2023-01-09T01:24:19.791Z,98157.41
2023-01-09T01:25:22.856Z,98146.91
2023-01-09T01:26:24.666Z,98151.81
2023-01-09T01:27:28.654Z,98145.03
2023-01-09T01:28:30.562Z,98160.66
2023-01-09T01:29:32.456Z,98152.22
2023-01-09T01:30:39.600Z,98158.63
2023-01-09T01:31:41.375Z,98160.22
2023-01-09T01:32:43.195Z,98165.03
2023-01-09T01:33:45.348Z,98161.59
2023-01-09T01:34:47.890Z,98166.34
2023-01-09T01:35:49.894Z,98178.03
2023-01-09T01:36:51.564Z,98176.28
2023-01-09T01:37:53.472Z,98178.03
2023-01-09T01:38:55.205Z,98181.31
2023-01-09T01:39:57.526Z,98184.66
2023-01-09T01:41:00.645Z,98178.03
2023-01-09T01:42:04.680Z,98181.78
2023-01-09T01:43:06.687Z,98181.13
2023-01-09T01:44:47.303Z,98179.44
2023-01-09T01:45:49.034Z,98177.78
2023-01-09T01:46:53.814Z,98174.97
2023-01-09T01:48:08.675Z,98171.72
2023-01-09T01:49:16.682Z,98182.50
2023-01-09T01:50:32.874Z,98184.47
2023-01-09T01:51:39.734Z,98178.53
2023-01-09T01:52:45.336Z,98179.56
2023-01-09T01:53:52.887Z,98179.78
2023-01-09T01:54:55.285Z,98170.44
2023-01-09T01:56:06.062Z,98170.66
2023-01-09T01:57:07.844Z,98164.59
2023-01-09T01:58:11.603Z,98169.16
2023-01-09T01:59:19.582Z,98171.78
2023-01-09T02:00:27.406Z,98152.13
2023-01-09T02:01:33.078Z,98153.81
2023-01-09T02:02:35.000Z,98159.03
2023-01-09T02:03:39.777Z,98159.84
2023-01-09T02:04:43.067Z,98163.38
2023-01-09T02:05:45.360Z,98164.41
2023-01-09T02:06:50.942Z,98167.28
2023-01-09T02:07:52.645Z,98159.06
2023-01-09T02:08:54.892Z,98182.88
2023-01-09T02:09:56.931Z,98176.84
2023-01-09T02:10:59.196Z,98181.78
2023-01-09T02:12:01.604Z,98169.97
2023-01-09T02:13:04.860Z,98170.91
2023-01-09T02:14:06.739Z,98182.09
2023-01-09T02:15:12.673Z,98174.56
2023-01-09T02:16:28.912Z,98179.28
2023-01-09T02:17:30.873Z,98177.56
2023-01-09T02:18:54.119Z,98177.91
2023-01-09T02:20:08.104Z,98176.56
2023-01-09T02:21:31.171Z,98179.34
2023-01-09T02:22:57.794Z,98183.00
2023-01-09T02:24:36.691Z,98179.56
2023-01-09T02:25:55.996Z,98187.34
2023-01-09T02:27:16.607Z,98195.16
2023-01-09T02:28:37.373Z,98182.16
2023-01-09T02:29:53.657Z,98188.22
2023-01-09T02:31:10.807Z,98190.94
2023-01-09T02:32:47.784Z,98192.59
2023-01-09T02:34:00.242Z,98216.13
2023-01-09T02:35:25.163Z,98201.47
2023-01-09T02:36:27.013Z,98202.53
2023-01-09T02:37:34.437Z,98208.69
2023-01-09T02:38:48.362Z,98218.25
2023-01-09T02:40:21.198Z,98223.31
2023-01-09T02:41:23.431Z,98213.81
2023-01-09T02:42:27.212Z,98237.06
2023-01-09T02:43:31.067Z,98230.00
2023-01-09T02:44:36.743Z,98228.50
2023-01-09T02:45:38.444Z,98230.16
2023-01-09T02:46:40.535Z,98232.72
2023-01-09T02:47:45.546Z,98246.75
2023-01-09T02:48:52.456Z,98226.81
2023-01-09T02:49:58.036Z,98246.47
2023-01-09T02:51:15.996Z,98244.88
2023-01-09T02:52:20.476Z,98265.63
2023-01-09T02:53:42.141Z,98284.00
2023-01-09T02:55:03.989Z,98283.72
2023-01-09T02:56:24.373Z,98300.09
2023-01-09T02:57:48.156Z,98308.75
2023-01-09T02:59:00.617Z,98308.03
2023-01-09T03:00:24.935Z,98304.31
2023-01-09T03:01:39.088Z,98315.34
2023-01-09T03:02:47.121Z,98309.84
2023-01-09T03:04:07.989Z,98307.50
2023-01-09T03:05:30.851Z,98339.88
2023-01-09T03:06:52.378Z,98342.78
2023-01-09T03:08:04.798Z,98344.81
2023-01-09T03:09:23.146Z,98340.00
2023-01-09T03:10:33.734Z,98345.34
2023-01-09T03:11:51.561Z,98353.16
2023-01-09T03:12:54.819Z,98357.00
2023-01-09T03:14:03.618Z,98365.72
2023-01-09T03:15:08.817Z,98356.78
2023-01-09T03:16:15.781Z,98368.78
2023-01-09T03:17:32.337Z,98362.91
2023-01-09T03:18:36.358Z,98373.38
2023-01-09T03:19:38.479Z,98382.41
2023-01-09T03:20:41.268Z,98377.56
2023-01-09T03:21:44.977Z,98383.78
2023-01-09T03:23:07.776Z,98382.16
2023-01-09T03:24:09.827Z,98396.13
2023-01-09T03:25:13.060Z,98397.00
2023-01-09T03:26:15.201Z,98388.81
2023-01-09T03:27:16.952Z,98402.78
2023-01-09T03:28:29.410Z,98410.75
2023-01-09T03:29:32.038Z,98410.78
2023-01-09T03:30:35.683Z,98411.88
2023-01-09T03:31:37.545Z,98422.38
2023-01-09T03:32:39.585Z,98427.81
2023-01-09T03:33:42.065Z,98424.44
2023-01-09T03:34:44.030Z,98425.44
2023-01-09T03:35:45.719Z,98428.97
2023-01-09T03:36:47.485Z,98424.63
2023-01-09T03:37:49.486Z,98414.22
2023-01-09T03:38:53.246Z,98416.97
2023-01-09T03:39:55.195Z,98422.38
2023-01-09T03:40:57.097Z,98430.25
2023-01-09T03:41:58.762Z,98429.63
2023-01-09T03:43:00.529Z,98441.44
2023-01-09T03:44:02.319Z,98439.47
2023-01-09T03:45:05.128Z,98434.59
2023-01-09T03:46:06.966Z,98436.25
2023-01-09T03:47:08.828Z,98449.31
2023-01-09T03:48:10.567Z,98448.34
2023-01-09T03:49:13.884Z,98463.91
2023-01-09T03:50:16.146Z,98458.72
2023-01-09T03:51:18.127Z,98462.22
2023-01-09T03:52:19.828Z,98452.75
2023-01-09T03:53:23.872Z,98457.03
2023-01-09T03:54:25.972Z,98453.59
2023-01-09T03:55:28.155Z,98453.59
2023-01-09T03:56:29.837Z,98446.50
2023-01-09T03:57:31.623Z,98452.53
2023-01-09T03:58:33.824Z,98463.78
2023-01-09T03:59:35.893Z,98461.00
2023-01-09T04:00:39.190Z,98461.94
2023-01-09T04:01:41.335Z,98479.06
2023-01-09T04:02:43.600Z,98470.41
2023-01-09T04:03:45.662Z,98475.53
2023-01-09T04:04:47.732Z,98485.09
2023-01-09T04:05:50.279Z,98483.41
2023-01-09T04:06:52.226Z,98492.94
2023-01-09T04:07:54.324Z,98474.00
2023-01-09T04:08:56.085Z,98474.06
2023-01-09T04:09:58.767Z,98485.31
2023-01-09T04:11:01.032Z,98482.50
2023-01-09T04:12:02.642Z,98474.28
2023-01-09T04:13:04.222Z,98487.91
2023-01-09T04:14:06.035Z,98491.41
2023-01-09T04:15:08.198Z,98486.28
2023-01-09T04:16:11.049Z,98493.91
2023-01-09T04:17:12.708Z,98491.53
2023-01-09T04:18:14.889Z,98498.44
2023-01-09T04:19:16.616Z,98489.78
2023-01-09T04:20:18.495Z,98472.75
2023-01-09T04:21:20.385Z,98493.22
2023-01-09T04:22:22.315Z,98499.41
2023-01-09T04:23:24.124Z,98491.84
2023-01-09T04:24:25.871Z,98497.03
2023-01-09T04:25:27.978Z,98500.25
2023-01-09T04:26:30.040Z,98498.13
2023-01-09T04:27:32.185Z,98503.31
2023-01-09T04:28:33.959Z,98501.44
2023-01-09T04:29:35.758Z,98516.16
2023-01-09T04:30:37.936Z,98532.81
2023-01-09T04:31:39.791Z,98522.44
2023-01-09T04:32:41.838Z,98522.22
2023-01-09T04:33:44.071Z,98531.75
2023-01-09T04:34:45.674Z,98535.25
2023-01-09T04:35:47.488Z,98538.06
2023-01-09T04:36:49.110Z,98538.13
2023-01-09T04:37:50.751Z,98533.44
2023-01-09T04:38:52.690Z,98538.97
2023-01-09T04:39:56.321Z,98553.84
2023-01-09T04:40:58.416Z,98522.63
2023-01-09T04:42:00.070Z,98525.66
2023-01-09T04:43:01.848Z,98541.06
2023-01-09T04:44:03.695Z,98552.41
2023-01-09T04:45:06.643Z,98547.00
2023-01-09T04:46:08.447Z,98566.63
2023-01-09T04:47:10.341Z,98573.63
2023-01-09T04:48:11.971Z,98571.56
2023-01-09T04:49:13.747Z,98563.00
2023-01-09T04:50:15.846Z,98571.97
2023-01-09T04:51:18.707Z,98578.72
2023-01-09T04:52:20.503Z,98593.66
2023-01-09T04:53:22.356Z,98604.97
2023-01-09T04:54:24.445Z,98580.59
2023-01-09T04:55:26.965Z,98587.47
2023-01-09T04:56:28.755Z,98597.19
2023-01-09T04:57:30.525Z,98571.13
2023-01-09T04:58:32.253Z,98594.72
2023-01-09T04:59:34.178Z,98581.72
2023-01-09T05:00:35.883Z,98572.31
2023-01-09T05:01:37.924Z,98588.19
2023-01-09T05:02:40.638Z,98574.63
2023-01-09T05:03:42.373Z,98575.63
2023-01-09T05:04:44.092Z,98592.31
2023-01-09T05:05:45.907Z,98577.00
2023-01-09T05:06:47.562Z,98561.56
2023-01-09T05:07:49.653Z,98550.47
2023-01-09T05:08:51.411Z,98557.63
2023-01-09T05:09:53.129Z,98562.81
2023-01-09T05:10:55.201Z,98564.63
2023-01-09T05:11:57.229Z,98565.41
2023-01-09T05:12:59.322Z,98566.13
2023-01-09T05:14:01.135Z,98566.03
2023-01-09T05:15:04.276Z,98569.47
2023-01-09T05:16:06.272Z,98564.03
2023-01-09T05:17:08.077Z,98571.19
2023-01-09T05:18:10.528Z,98563.81
2023-01-09T05:19:12.941Z,98563.06
2023-01-09T05:20:14.756Z,98571.84
2023-01-09T05:21:16.399Z,98580.78
2023-01-09T05:22:21.147Z,98586.75
2023-01-09T05:23:23.220Z,98581.66
2023-01-09T05:24:24.952Z,98574.06
2023-01-09T05:25:26.820Z,98574.34
2023-01-09T05:26:28.721Z,98577.13
2023-01-09T05:27:30.562Z,98569.34
2023-01-09T05:28:32.847Z,98573.00
2023-01-09T05:29:34.722Z,98568.94
2023-01-09T05:30:36.548Z,98579.53
2023-01-09T05:31:38.330Z,98577.78
2023-01-09T05:32:40.253Z,98583.09
2023-01-09T05:33:41.935Z,98586.69
2023-01-09T05:34:43.970Z,98583.06
2023-01-09T05:35:45.633Z,98590.06
2023-01-09T05:36:47.396Z,98593.53
2023-01-09T05:37:50.161Z,98593.31
2023-01-09T05:38:52.140Z,98595.06
2023-01-09T05:39:54.121Z,98592.97
2023-01-09T05:40:55.953Z,98588.06
2023-01-09T05:41:57.726Z,98586.38
2023-01-09T05:43:02.419Z,98590.38
2023-01-09T05:44:05.013Z,98587.59
2023-01-09T05:45:07.252Z,98595.22
2023-01-09T05:46:09.078Z,98598.81
2023-01-09T05:47:10.745Z,98592.53
2023-01-09T05:48:14.191Z,98591.75
2023-01-09T05:49:18.405Z,98586.69
2023-01-09T05:50:22.569Z,98591.00
2023-01-09T05:51:24.636Z,98599.91
2023-01-09T05:52:26.575Z,98599.56
2023-01-09T05:53:28.388Z,98600.25
2023-01-09T05:54:30.501Z,98607.28
2023-01-09T05:55:32.939Z,98597.66
2023-01-09T05:56:34.867Z,98593.22
2023-01-09T05:57:36.850Z,98622.44
2023-01-09T05:58:39.306Z,98611.16
2023-01-09T05:59:40.992Z,98600.59
2023-01-09T06:00:42.742Z,98618.88
2023-01-09T06:01:44.659Z,98614.34
2023-01-09T06:02:46.714Z,98572.66
2023-01-09T06:03:48.433Z,98620.53
2023-01-09T06:04:50.163Z,98615.50
2023-01-09T06:05:51.850Z,98610.97
2023-01-09T06:06:53.769Z,98616.25
2023-01-09T06:07:55.605Z,98607.69
2023-01-09T06:08:58.131Z,98619.28
2023-01-09T06:09:59.904Z,98623.44
2023-01-09T06:11:02.203Z,98608.19
2023-01-09T06:12:04.175Z,98615.34
2023-01-09T06:13:06.032Z,98627.34
2023-01-09T06:14:07.880Z,98638.47
2023-01-09T06:15:10.140Z,98634.25
2023-01-09T06:16:13.966Z,98657.41
2023-01-09T06:17:15.966Z,98629.03
2023-01-09T06:18:18.084Z,98629.34
2023-01-09T06:19:19.765Z,98632.84
2023-01-09T06:20:21.481Z,98622.53
2023-01-09T06:21:24.048Z,98615.28
2023-01-09T06:22:25.931Z,98624.78
2023-01-09T06:23:27.811Z,98624.38
2023-01-09T06:24:29.679Z,98626.94
2023-01-09T06:25:31.746Z,98610.75
2023-01-09T06:26:33.575Z,98627.34
2023-01-09T06:27:35.783Z,98617.16
2023-01-09T06:28:37.771Z,98630.25
2023-01-09T06:29:39.933Z,98621.16
2023-01-09T06:30:41.668Z,98605.38
2023-01-09T06:31:45.610Z,98627.88
2023-01-09T06:32:50.707Z,98632.22
2023-01-09T06:33:53.594Z,98611.41
2023-01-09T06:34:55.210Z,98609.72
2023-01-09T06:35:56.814Z,98610.75
2023-01-09T06:36:58.431Z,98616.16
2023-01-09T06:38:02.097Z,98628.09
2023-01-09T06:39:04.053Z,98610.97
2023-01-09T06:40:06.587Z,98620.06
2023-01-09T06:41:08.458Z,98605.81
2023-01-09T06:42:10.281Z,98606.44
2023-01-09T06:43:14.054Z,98599.81
2023-01-09T06:44:16.169Z,98622.16
2023-01-09T06:45:18.148Z,98616.09
2023-01-09T06:46:20.167Z,98605.69
2023-01-09T06:47:21.992Z,98632.38
2023-01-09T06:48:25.136Z,98622.69
2023-01-09T06:49:26.959Z,98624.56
2023-01-09T06:50:28.727Z,98622.91
2023-01-09T06:51:30.481Z,98644.72
2023-01-09T06:52:32.096Z,98644.25
2023-01-09T06:53:35.086Z,98629.34
2023-01-09T06:54:37.574Z,98630.09
2023-01-09T06:55:39.218Z,98639.53
2023-01-09T06:56:41.162Z,98642.03
2023-01-09T06:57:42.886Z,98629.88
2023-01-09T06:58:51.625Z,98633.53
2023-01-09T06:59:53.840Z,98627.75
2023-01-09T07:00:56.655Z,98640.75
2023-01-09T07:01:58.753Z,98621.91
2023-01-09T07:03:01.083Z,98622.44
2023-01-09T07:04:05.419Z,98630.00
2023-01-09T07:05:08.655Z,98626.88
2023-01-09T07:06:10.305Z,98638.97
2023-01-09T07:07:12.574Z,98634.31
2023-01-09T07:08:15.452Z,98612.13
2023-01-09T07:09:18.123Z,98624.72
2023-01-09T07:10:20.188Z,98628.66
2023-01-09T07:11:22.026Z,98637.84
2023-01-09T07:12:24.722Z,98634.47
2023-01-09T07:13:26.792Z,98627.75
2023-01-09T07:14:28.558Z,98642.75
2023-01-09T07:15:31.438Z,98632.38
2023-01-09T07:16:33.819Z,98633.19
2023-01-09T07:17:35.585Z,98635.94
2023-01-09T07:18:37.629Z,98616.94
2023-01-09T07:19:42.104Z,98637.34
2023-01-09T07:20:43.775Z,98636.44
2023-01-09T07:21:45.978Z,98630.00
2023-01-09T07:22:48.106Z,98636.44
2023-01-09T07:23:51.776Z,98642.88
2023-01-09T07:24:54.936Z,98653.69
2023-01-09T07:25:58.055Z,98621.66
2023-01-09T07:26:59.943Z,98639.59
2023-01-09T07:28:03.024Z,98598.22
2023-01-09T07:29:05.314Z,98656.72
2023-01-09T07:30:08.053Z,98645.97
2023-01-09T07:31:09.940Z,98631.34
2023-01-09T07:32:11.768Z,98651.38
2023-01-09T07:33:13.714Z,98644.38
2023-01-09T07:34:15.562Z,98629.44
2023-01-09T07:35:17.258Z,98613.72
2023-01-09T07:36:19.319Z,98626.16
2023-01-09T07:37:21.761Z,98627.31
2023-01-09T07:38:23.415Z,98621.72
2023-01-09T07:39:25.224Z,98627.09
2023-01-09T07:40:27.310Z,98623.50
2023-01-09T07:41:29.053Z,98621.97
2023-01-09T07:42:30.891Z,98629.22
2023-01-09T07:43:34.884Z,98608.72
2023-01-09T07:44:36.594Z,98610.66
2023-01-09T07:45:38.308Z,98637.38
2023-01-09T07:46:40.335Z,98646.31
2023-01-09T07:47:42.506Z,98652.03
2023-01-09T07:48:44.161Z,98638.03
2023-01-09T07:49:45.793Z,98650.38
2023-01-09T07:50:47.873Z,98646.56
2023-01-09T07:51:49.688Z,98649.94
2023-01-09T07:52:51.533Z,98650.03
2023-01-09T07:53:53.486Z,98651.78
2023-01-09T07:54:56.503Z,98646.38
2023-01-09T07:55:58.628Z,98649.75
2023-01-09T07:57:00.377Z,98645.38
2023-01-09T07:58:02.858Z,98655.72
2023-01-09T07:59:04.800Z,98642.78
2023-01-09T08:00:10.925Z,98659.94
2023-01-09T08:01:12.786Z,98652.91
2023-01-09T08:02:14.630Z,98649.59
2023-01-09T08:03:16.690Z,98652.22
2023-01-09T08:04:18.562Z,98655.41
2023-01-09T08:05:21.042Z,98648.50
2023-01-09T08:06:22.720Z,98657.94
2023-01-09T08:07:25.700Z,98651.31
2023-01-09T08:08:29.151Z,98655.56
2023-01-09T08:09:31.201Z,98650.31
2023-01-09T08:10:33.010Z,98656.50
2023-01-09T08:11:34.910Z,98655.81
2023-01-09T08:12:36.743Z,98643.63
2023-01-09T08:13:38.499Z,98655.66
2023-01-09T08:14:40.208Z,98645.25
2023-01-09T08:15:42.008Z,98640.03
2023-01-09T08:16:44.171Z,98660.94
2023-01-09T08:17:47.284Z,98648.50
2023-01-09T08:19:07.147Z,98648.38
2023-01-09T08:20:14.504Z,98662.75
2023-01-09T08:21:16.291Z,98641.81
2023-01-09T08:22:17.984Z,98679.91
2023-01-09T08:23:19.688Z,98660.50
2023-01-09T08:24:21.437Z,98635.69
2023-01-09T08:25:27.113Z,98655.34
2023-01-09T08:26:28.926Z,98643.69
2023-01-09T08:27:30.546Z,98637.28
2023-01-09T08:28:32.659Z,98648.19
2023-01-09T08:29:34.695Z,98652.56
2023-01-09T08:30:37.340Z,98656.38
2023-01-09T08:31:39.197Z,98653.44
2023-01-09T08:32:41.430Z,98657.91
2023-01-09T08:33:43.878Z,98660.25
2023-01-09T08:34:45.585Z,98665.41
2023-01-09T08:35:47.819Z,98641.41
2023-01-09T08:36:49.604Z,98660.50
2023-01-09T08:37:51.666Z,98657.34
2023-01-09T08:38:53.636Z,98655.13
2023-01-09T08:39:56.534Z,98663.31
2023-01-09T08:40:58.257Z,98660.69
2023-01-09T08:42:18.862Z,98657.31
2023-01-09T08:43:39.125Z,98654.31
2023-01-09T08:44:59.596Z,98652.97
2023-01-09T08:46:20.596Z,98649.28
2023-01-09T08:47:24.193Z,98651.34
2023-01-09T08:48:27.219Z,98651.72
2023-01-09T08:49:31.889Z,98651.69
2023-01-09T08:50:34.085Z,98666.34
2023-01-09T08:51:38.226Z,98656.44
2023-01-09T08:52:40.317Z,98662.88
2023-01-09T08:53:41.982Z,98660.13
2023-01-09T08:54:43.659Z,98669.09
2023-01-09T08:55:45.346Z,98659.44
2023-01-09T08:56:47.724Z,98651.63
2023-01-09T08:57:54.466Z,98652.16
2023-01-09T08:58:56.374Z,98649.53
2023-01-09T08:59:58.147Z,98650.91
2023-01-09T09:00:59.784Z,98655.53
2023-01-09T09:02:01.564Z,98653.66
2023-01-09T09:03:03.538Z,98649.19
2023-01-09T09:04:06.188Z,98624.44
2023-01-09T09:05:08.517Z,98646.91
2023-01-09T09:06:11.066Z,98641.78
2023-01-09T09:07:12.823Z,98653.44
2023-01-09T09:08:15.991Z,98637.94
2023-01-09T09:09:17.716Z,98627.53
2023-01-09T09:10:19.656Z,98633.22
2023-01-09T09:11:21.626Z,98636.69
2023-01-09T09:12:23.245Z,98623.75
2023-01-09T09:13:25.105Z,98636.84
2023-01-09T09:14:45.504Z,98612.31
2023-01-09T09:15:47.301Z,98631.94
2023-01-09T09:16:49.972Z,98610.75
2023-01-09T09:18:00.843Z,98611.78
2023-01-09T09:19:02.524Z,98613.69
2023-01-09T09:20:04.865Z,98639.06
2023-01-09T09:21:06.533Z,98618.47
2023-01-09T09:22:08.983Z,98594.03
2023-01-09T09:23:10.668Z,98612.25
2023-01-09T09:24:12.352Z,98626.59
2023-01-09T09:25:15.276Z,98625.38
2023-01-09T09:26:16.924Z,98617.06
2023-01-09T09:27:18.870Z,98616.47
2023-01-09T09:28:21.420Z,98635.84
2023-01-09T09:29:23.115Z,98622.94
2023-01-09T09:30:27.922Z,98622.22
2023-01-09T09:31:32.642Z,98606.72
2023-01-09T09:32:34.486Z,98640.78
2023-01-09T09:33:36.267Z,98606.63
2023-01-09T09:34:38.522Z,98623.16
2023-01-09T09:35:40.396Z,98638.78
2023-01-09T09:36:42.071Z,98609.84
2023-01-09T09:37:54.085Z,98628.91
2023-01-09T09:38:56.301Z,98636.28
2023-01-09T09:40:01.480Z,98633.28
2023-01-09T09:42:09.437Z,98630.00
2023-01-09T09:43:38.781Z,98647.66
2023-01-09T09:45:00.739Z,98638.41
2023-01-09T09:46:22.398Z,98632.81
2023-01-09T09:47:43.421Z,98659.78
2023-01-09T09:48:51.521Z,98627.03
2023-01-09T09:50:03.749Z,98641.47
2023-01-09T09:51:20.752Z,98637.66
2023-01-09T09:52:39.231Z,98626.59
2023-01-09T09:54:06.450Z,98610.09
2023-01-09T09:55:24.373Z,98633.22
2023-01-09T09:56:27.792Z,98647.28
2023-01-09T09:57:36.407Z,98628.91
2023-01-09T09:58:45.559Z,98636.50
2023-01-09T09:59:51.263Z,98639.84
2023-01-09T10:00:54.395Z,98631.13
2023-01-09T10:02:20.564Z,98647.06
2023-01-09T10:03:34.293Z,98626.59
2023-01-09T10:04:43.238Z,98634.91
2023-01-09T10:05:48.916Z,98622.59
2023-01-09T10:06:56.983Z,98635.59
2023-01-09T10:08:15.350Z,98619.53
2023-01-09T10:09:18.143Z,98619.78
2023-01-09T10:10:32.680Z,98627.81
2023-01-09T10:11:49.213Z,98598.78
2023-01-09T10:12:55.243Z,98608.34
2023-01-09T10:14:13.062Z,98609.19
2023-01-09T10:15:46.263Z,98627.69
2023-01-09T10:16:57.504Z,98626.66
2023-01-09T10:18:11.252Z,98618.41
2023-01-09T10:19:35.749Z,98610.16
2023-01-09T10:20:49.551Z,98646.75
2023-01-09T10:22:09.171Z,98629.75
2023-01-09T10:23:28.831Z,98623.38
2023-01-09T10:24:52.273Z,98629.00
2023-01-09T10:26:00.689Z,98634.69
2023-01-09T10:27:24.162Z,98622.31
2023-01-09T10:28:44.396Z,98605.41
2023-01-09T10:30:13.581Z,98614.72
2023-01-09T10:31:27.854Z,98623.06
2023-01-09T10:32:47.610Z,98617.13
2023-01-09T10:33:55.567Z,98623.63
2023-01-09T10:35:07.339Z,98618.31
2023-01-09T10:36:33.648Z,98609.28
2023-01-09T10:37:53.779Z,98613.38
2023-01-09T10:38:58.258Z,98610.41
2023-01-09T10:40:14.437Z,98615.63
2023-01-09T10:41:24.994Z,98632.84
2023-01-09T10:42:33.522Z,98595.44
2023-01-09T10:43:41.909Z,98593.59
2023-01-09T10:44:53.405Z,98613.13
2023-01-09T10:46:01.709Z,98591.22
2023-01-09T10:47:11.647Z,98607.22
2023-01-09T10:48:37.726Z,98597.16
2023-01-09T10:49:40.061Z,98623.50
2023-01-09T10:50:46.884Z,98621.38
2023-01-09T10:52:07.370Z,98589.91
2023-01-09T10:53:25.502Z,98602.16
2023-01-09T10:54:29.817Z,98603.84
2023-01-09T10:55:41.465Z,98608.06
2023-01-09T10:56:47.926Z,98607.91
2023-01-09T10:57:56.115Z,98623.16
2023-01-09T10:58:58.111Z,98608.94
2023-01-09T10:59:59.945Z,98624.88
2023-01-09T11:01:03.267Z,98604.56
2023-01-09T11:02:05.146Z,98603.31
2023-01-09T11:03:14.777Z,98616.66
2023-01-09T11:04:48.774Z,98617.75
2023-01-09T11:05:52.471Z,98602.31
2023-01-09T11:07:12.451Z,98598.31
2023-01-09T11:08:28.472Z,98601.88
2023-01-09T11:09:55.936Z,98603.38
2023-01-09T11:11:01.097Z,98603.56
2023-01-09T11:12:23.739Z,98599.50
2023-01-09T11:13:38.529Z,98610.59
2023-01-09T11:14:40.302Z,98663.94
2023-01-09T11:15:42.144Z,98643.75
2023-01-09T11:16:58.693Z,98623.31
2023-01-09T11:18:30.215Z,98636.31
2023-01-09T11:19:33.655Z,98636.72
2023-01-09T11:20:35.430Z,98637.06
2023-01-09T11:21:40.628Z,98649.09
2023-01-09T11:22:56.635Z,98664.84
2023-01-09T11:24:26.654Z,98641.78
2023-01-09T11:25:29.261Z,98656.28
2023-01-09T11:26:33.054Z,98665.28
2023-01-09T11:27:34.785Z,98652.91
2023-01-09T11:28:36.444Z,98664.75
2023-01-09T11:29:38.447Z,98663.88
2023-01-09T11:31:03.605Z,98658.31
2023-01-09T11:32:05.830Z,98670.22
2023-01-09T11:33:18.318Z,98681.16
2023-01-09T11:34:24.080Z,98652.84
2023-01-09T11:35:34.215Z,98678.81
2023-01-09T11:36:36.429Z,98666.84
2023-01-09T11:37:38.231Z,98675.63
2023-01-09T11:38:57.763Z,98684.91
2023-01-09T11:40:01.422Z,98669.34
2023-01-09T11:41:05.093Z,98672.44
2023-01-09T11:42:46.078Z,98668.69
2023-01-09T11:43:54.432Z,98663.56
2023-01-09T11:44:59.164Z,98659.56
2023-01-09T11:46:04.612Z,98683.03
2023-01-09T11:47:26.764Z,98676.47
2023-01-09T11:48:33.991Z,98644.66
2023-01-09T11:49:35.863Z,98675.03
2023-01-09T11:50:37.638Z,98658.78
2023-01-09T11:51:39.381Z,98656.44
2023-01-09T11:52:41.101Z,98658.69
2023-01-09T11:53:58.273Z,98654.47
2023-01-09T11:55:05.084Z,98646.75
2023-01-09T11:56:09.806Z,98627.25
2023-01-09T11:57:12.679Z,98641.84
2023-01-09T11:58:17.940Z,98648.03
2023-01-09T11:59:24.900Z,98638.09
2023-01-09T12:00:29.673Z,98647.84
2023-01-09T12:02:02.065Z,98640.34
2023-01-09T12:03:16.622Z,98639.31
2023-01-09T12:04:34.379Z,98621.38
2023-01-09T12:05:57.700Z,98633.63
2023-01-09T12:07:14.500Z,98641.34
2023-01-09T12:08:33.625Z,98650.38
2023-01-09T12:09:56.653Z,98641.19
2023-01-09T12:11:20.993Z,98644.53
2023-01-09T12:12:36.572Z,98640.09
2023-01-09T12:13:56.625Z,98628.09
2023-01-09T12:15:17.663Z,98638.81
2023-01-09T12:16:38.020Z,98639.72
2023-01-09T12:17:53.948Z,98634.44
2023-01-09T12:19:38.233Z,98644.69
2023-01-09T12:21:02.841Z,98634.47
2023-01-09T12:22:22.504Z,98636.00
2023-01-09T12:23:51.231Z,98634.53
2023-01-09T12:25:23.790Z,98625.69
2023-01-09T12:26:39.385Z,98626.75
2023-01-09T12:28:02.624Z,98637.94
2023-01-09T12:29:25.782Z,98631.03
2023-01-09T12:30:56.120Z,98638.75
2023-01-09T12:32:03.582Z,98634.22
2023-01-09T12:33:33.940Z,98646.78
2023-01-09T12:34:54.509Z,98666.47
2023-01-09T12:36:18.609Z,98661.03
2023-01-09T12:37:37.458Z,98664.09
2023-01-09T12:38:55.664Z,98674.56
2023-01-09T12:40:16.262Z,98694.88
2023-01-09T12:41:35.469Z,98702.28
2023-01-09T12:42:46.153Z,98699.06
2023-01-09T12:44:03.233Z,98708.31
2023-01-09T12:45:36.519Z,98726.28
2023-01-09T12:46:53.865Z,98727.44
2023-01-09T12:48:07.991Z,98703.06
2023-01-09T12:49:28.544Z,98718.81
2023-01-09T12:51:30.963Z,98729.84
2023-01-09T12:52:43.728Z,98736.16
2023-01-09T12:54:35.357Z,98735.25
2023-01-09T12:55:42.861Z,98723.38
2023-01-09T12:57:00.811Z,98740.16
2023-01-09T12:58:21.858Z,98721.38
2023-01-09T12:59:45.070Z,98741.59
2023-01-09T13:00:52.529Z,98725.50
2023-01-09T13:01:56.727Z,98724.41
2023-01-09T13:03:15.416Z,98731.22